sensor_id;sensor_type;location;lat;lon;timestamp;temperature;humidity
16313;DHT22;8265;52.622;13.296;2023-05-29T00:02:20;11.70;70.90
16313;DHT22;8265;52.622;13.296;2023-05-29T00:07:41;11.50;71.20
16313;DHT22;8265;52.622;13.296;2023-05-29T00:13:02;11.30;71.90
16313;DHT22;8265;52.622;13.296;2023-05-29T00:18:23;11.20;72.10
16313;DHT22;8265;52.622;13.296;2023-05-29T00:23:44;11.10;72.60
16313;DHT22;8265;52.622;13.296;2023-05-29T00:29:05;11.00;73.20
16313;DHT22;8265;52.622;13.296;2023-05-29T00:34:26;10.90;73.30
16313;DHT22;8265;52.622;13.296;2023-05-29T00:39:49;11.00;73.60
16313;DHT22;8265;52.622;13.296;2023-05-29T00:45:08;10.90;73.00
16313;DHT22;8265;52.622;13.296;2023-05-29T00:50:28;10.80;73.50
16313;DHT22;8265;52.622;13.296;2023-05-29T00:55:50;10.60;74.50
16313;DHT22;8265;52.622;13.296;2023-05-29T01:01:10;10.60;74.50
16313;DHT22;8265;52.622;13.296;2023-05-29T01:06:37;10.50;73.70
16313;DHT22;8265;52.622;13.296;2023-05-29T01:12:12;10.70;74.80
16313;DHT22;8265;52.622;13.296;2023-05-29T01:17:23;10.70;74.00
16313;DHT22;8265;52.622;13.296;2023-05-29T01:27:55;10.60;73.70
16313;DHT22;8265;52.622;13.296;2023-05-29T01:33:16;10.40;75.10
16313;DHT22;8265;52.622;13.296;2023-05-29T01:38:37;10.50;74.70
16313;DHT22;8265;52.622;13.296;2023-05-29T01:43:59;10.60;74.70
16313;DHT22;8265;52.622;13.296;2023-05-29T01:49:19;10.50;74.70
16313;DHT22;8265;52.622;13.296;2023-05-29T01:54:40;10.40;74.20
16313;DHT22;8265;52.622;13.296;2023-05-29T02:00:02;10.20;75.40
16313;DHT22;8265;52.622;13.296;2023-05-29T02:05:22;10.10;75.80
16313;DHT22;8265;52.622;13.296;2023-05-29T02:10:43;10.10;75.50
16313;DHT22;8265;52.622;13.296;2023-05-29T02:16:05;10.00;76.10
16313;DHT22;8265;52.622;13.296;2023-05-29T02:21:25;9.90;76.20
16313;DHT22;8265;52.622;13.296;2023-05-29T02:26:48;9.90;76.40
16313;DHT22;8265;52.622;13.296;2023-05-29T02:32:07;9.70;76.70
16313;DHT22;8265;52.622;13.296;2023-05-29T02:37:28;9.80;76.90
16313;DHT22;8265;52.622;13.296;2023-05-29T02:42:50;9.60;77.00
16313;DHT22;8265;52.622;13.296;2023-05-29T02:48:10;9.50;78.10
16313;DHT22;8265;52.622;13.296;2023-05-29T02:53:31;9.50;78.10
16313;DHT22;8265;52.622;13.296;2023-05-29T02:58:52;9.70;77.20
16313;DHT22;8265;52.622;13.296;2023-05-29T03:04:13;9.90;76.90
16313;DHT22;8265;52.622;13.296;2023-05-29T03:09:35;9.90;76.70
16313;DHT22;8265;52.622;13.296;2023-05-29T03:14:55;9.80;76.30
16313;DHT22;8265;52.622;13.296;2023-05-29T03:20:16;10.00;76.20
16313;DHT22;8265;52.622;13.296;2023-05-29T03:25:37;9.90;76.50
16313;DHT22;8265;52.622;13.296;2023-05-29T03:30:58;9.80;76.90
16313;DHT22;8265;52.622;13.296;2023-05-29T03:36:19;10.00;76.60
16313;DHT22;8265;52.622;13.296;2023-05-29T03:41:40;10.00;76.50
16313;DHT22;8265;52.622;13.296;2023-05-29T03:47:01;10.20;75.50
16313;DHT22;8265;52.622;13.296;2023-05-29T03:52:22;10.20;75.30
16313;DHT22;8265;52.622;13.296;2023-05-29T03:57:43;10.40;75.50
16313;DHT22;8265;52.622;13.296;2023-05-29T04:03:04;10.70;74.90
16313;DHT22;8265;52.622;13.296;2023-05-29T04:08:25;10.90;74.40
16313;DHT22;8265;52.622;13.296;2023-05-29T04:13:47;11.10;73.80
16313;DHT22;8265;52.622;13.296;2023-05-29T04:19:07;11.10;73.40
16313;DHT22;8265;52.622;13.296;2023-05-29T04:24:28;11.30;73.70
16313;DHT22;8265;52.622;13.296;2023-05-29T04:29:49;11.50;73.10
16313;DHT22;8265;52.622;13.296;2023-05-29T04:35:10;11.90;70.70
16313;DHT22;8265;52.622;13.296;2023-05-29T04:40:31;11.70;71.70
16313;DHT22;8265;52.622;13.296;2023-05-29T04:45:52;12.00;70.00
16313;DHT22;8265;52.622;13.296;2023-05-29T04:51:13;12.10;70.10
16313;DHT22;8265;52.622;13.296;2023-05-29T04:56:34;12.10;70.90
16313;DHT22;8265;52.622;13.296;2023-05-29T05:01:55;12.00;71.80
16313;DHT22;8265;52.622;13.296;2023-05-29T05:07:16;12.10;70.40
16313;DHT22;8265;52.622;13.296;2023-05-29T05:12:37;12.20;70.70
16313;DHT22;8265;52.622;13.296;2023-05-29T05:17:58;12.20;70.30
16313;DHT22;8265;52.622;13.296;2023-05-29T05:23:19;12.50;68.70
16313;DHT22;8265;52.622;13.296;2023-05-29T05:28:40;12.80;68.40
16313;DHT22;8265;52.622;13.296;2023-05-29T05:34:01;13.00;68.00
16313;DHT22;8265;52.622;13.296;2023-05-29T05:39:22;13.10;67.10
16313;DHT22;8265;52.622;13.296;2023-05-29T05:44:43;13.30;67.20
16313;DHT22;8265;52.622;13.296;2023-05-29T05:50:04;13.50;66.10
16313;DHT22;8265;52.622;13.296;2023-05-29T05:55:25;13.90;65.10
16313;DHT22;8265;52.622;13.296;2023-05-29T06:00:46;14.30;63.90
16313;DHT22;8265;52.622;13.296;2023-05-29T06:06:07;14.70;63.30
16313;DHT22;8265;52.622;13.296;2023-05-29T06:11:28;14.90;60.60
16313;DHT22;8265;52.622;13.296;2023-05-29T06:16:49;15.00;59.60
16313;DHT22;8265;52.622;13.296;2023-05-29T06:22:10;15.20;60.00
16313;DHT22;8265;52.622;13.296;2023-05-29T06:27:31;15.30;58.40
16313;DHT22;8265;52.622;13.296;2023-05-29T06:32:52;15.50;57.50
16313;DHT22;8265;52.622;13.296;2023-05-29T06:38:13;15.90;57.50
16313;DHT22;8265;52.622;13.296;2023-05-29T06:43:34;15.90;56.50
16313;DHT22;8265;52.622;13.296;2023-05-29T06:48:55;16.00;55.90
16313;DHT22;8265;52.622;13.296;2023-05-29T06:54:16;16.20;57.40
16313;DHT22;8265;52.622;13.296;2023-05-29T06:59:37;16.60;55.60
16313;DHT22;8265;52.622;13.296;2023-05-29T07:04:58;16.90;55.40
16313;DHT22;8265;52.622;13.296;2023-05-29T07:10:19;16.90;54.60
16313;DHT22;8265;52.622;13.296;2023-05-29T07:15:40;16.70;55.90
16313;DHT22;8265;52.622;13.296;2023-05-29T07:21:01;16.90;54.90
16313;DHT22;8265;52.622;13.296;2023-05-29T07:26:22;17.00;55.50
16313;DHT22;8265;52.622;13.296;2023-05-29T07:31:43;17.50;53.70
16313;DHT22;8265;52.622;13.296;2023-05-29T07:37:05;18.00;53.10
16313;DHT22;8265;52.622;13.296;2023-05-29T07:42:25;17.90;52.00
16313;DHT22;8265;52.622;13.296;2023-05-29T07:47:46;17.70;52.60
16313;DHT22;8265;52.622;13.296;2023-05-29T07:53:07;18.00;51.80
16313;DHT22;8265;52.622;13.296;2023-05-29T07:58:28;18.10;52.30
16313;DHT22;8265;52.622;13.296;2023-05-29T08:03:49;18.00;50.80
16313;DHT22;8265;52.622;13.296;2023-05-29T08:09:10;17.80;50.80
16313;DHT22;8265;52.622;13.296;2023-05-29T08:14:31;17.70;51.10
16313;DHT22;8265;52.622;13.296;2023-05-29T08:19:53;17.50;52.20
16313;DHT22;8265;52.622;13.296;2023-05-29T08:25:13;17.80;50.80
16313;DHT22;8265;52.622;13.296;2023-05-29T08:30:34;17.90;50.40
16313;DHT22;8265;52.622;13.296;2023-05-29T08:35:56;18.00;50.50
16313;DHT22;8265;52.622;13.296;2023-05-29T08:41:37;18.30;49.10
16313;DHT22;8265;52.622;13.296;2023-05-29T08:46:37;18.40;49.70
16313;DHT22;8265;52.622;13.296;2023-05-29T08:52:16;18.80;48.00
16313;DHT22;8265;52.622;13.296;2023-05-29T08:57:19;19.00;48.40
16313;DHT22;8265;52.622;13.296;2023-05-29T09:02:40;19.40;47.40
16313;DHT22;8265;52.622;13.296;2023-05-29T09:08:01;19.70;46.20
16313;DHT22;8265;52.622;13.296;2023-05-29T09:13:22;19.40;48.50
16313;DHT22;8265;52.622;13.296;2023-05-29T09:18:43;20.00;46.60
16313;DHT22;8265;52.622;13.296;2023-05-29T09:24:04;20.30;46.60
16313;DHT22;8265;52.622;13.296;2023-05-29T09:29:25;20.50;45.10
16313;DHT22;8265;52.622;13.296;2023-05-29T09:34:46;20.80;45.70
16313;DHT22;8265;52.622;13.296;2023-05-29T09:40:07;20.30;47.30
16313;DHT22;8265;52.622;13.296;2023-05-29T09:45:28;20.30;46.30
16313;DHT22;8265;52.622;13.296;2023-05-29T09:50:49;20.50;45.10
16313;DHT22;8265;52.622;13.296;2023-05-29T09:56:10;21.00;45.10
16313;DHT22;8265;52.622;13.296;2023-05-29T10:01:31;20.60;43.90
16313;DHT22;8265;52.622;13.296;2023-05-29T10:06:52;20.50;44.80
16313;DHT22;8265;52.622;13.296;2023-05-29T10:12:13;20.80;43.00
16313;DHT22;8265;52.622;13.296;2023-05-29T10:17:34;21.00;44.00
16313;DHT22;8265;52.622;13.296;2023-05-29T10:22:55;20.50;44.00
16313;DHT22;8265;52.622;13.296;2023-05-29T10:28:16;20.10;44.50
16313;DHT22;8265;52.622;13.296;2023-05-29T10:38:58;21.10;42.20
16313;DHT22;8265;52.622;13.296;2023-05-29T10:49:44;21.10;43.40
16313;DHT22;8265;52.622;13.296;2023-05-29T10:55:01;20.70;44.00
16313;DHT22;8265;52.622;13.296;2023-05-29T11:00:22;21.50;42.30
16313;DHT22;8265;52.622;13.296;2023-05-29T11:06:16;21.40;42.10
16313;DHT22;8265;52.622;13.296;2023-05-29T11:11:04;20.90;43.40
16313;DHT22;8265;52.622;13.296;2023-05-29T11:21:53;20.90;42.80
16313;DHT22;8265;52.622;13.296;2023-05-29T11:27:07;21.30;42.60
16313;DHT22;8265;52.622;13.296;2023-05-29T11:32:28;22.10;40.40
16313;DHT22;8265;52.622;13.296;2023-05-29T11:37:49;22.40;41.20
16313;DHT22;8265;52.622;13.296;2023-05-29T11:43:11;21.90;42.50
16313;DHT22;8265;52.622;13.296;2023-05-29T11:48:31;21.70;43.10
16313;DHT22;8265;52.622;13.296;2023-05-29T11:53:52;21.60;43.80
16313;DHT22;8265;52.622;13.296;2023-05-29T11:59:13;21.10;43.30
16313;DHT22;8265;52.622;13.296;2023-05-29T12:04:34;21.90;41.80
16313;DHT22;8265;52.622;13.296;2023-05-29T12:09:55;22.50;41.00
16313;DHT22;8265;52.622;13.296;2023-05-29T12:15:16;22.30;40.60
16313;DHT22;8265;52.622;13.296;2023-05-29T12:20:37;21.90;41.90
16313;DHT22;8265;52.622;13.296;2023-05-29T12:25:58;21.40;42.50
16313;DHT22;8265;52.622;13.296;2023-05-29T12:31:28;21.80;42.60
16313;DHT22;8265;52.622;13.296;2023-05-29T12:36:43;21.90;41.20
16313;DHT22;8265;52.622;13.296;2023-05-29T12:42:01;22.50;40.60
16313;DHT22;8265;52.622;13.296;2023-05-29T12:47:25;23.40;40.50
16313;DHT22;8265;52.622;13.296;2023-05-29T12:52:43;22.70;41.20
16313;DHT22;8265;52.622;13.296;2023-05-29T12:58:05;22.60;42.40
16313;DHT22;8265;52.622;13.296;2023-05-29T13:03:25;22.80;40.50
16313;DHT22;8265;52.622;13.296;2023-05-29T13:08:46;23.10;40.10
16313;DHT22;8265;52.622;13.296;2023-05-29T13:14:07;22.70;39.00
16313;DHT22;8265;52.622;13.296;2023-05-29T13:19:28;22.50;40.60
16313;DHT22;8265;52.622;13.296;2023-05-29T13:24:49;23.20;39.80
16313;DHT22;8265;52.622;13.296;2023-05-29T13:30:11;23.60;37.70
16313;DHT22;8265;52.622;13.296;2023-05-29T13:35:31;23.10;38.60
16313;DHT22;8265;52.622;13.296;2023-05-29T13:40:52;23.10;38.70
16313;DHT22;8265;52.622;13.296;2023-05-29T13:46:13;23.60;38.70
16313;DHT22;8265;52.622;13.296;2023-05-29T13:51:34;23.10;39.20
16313;DHT22;8265;52.622;13.296;2023-05-29T13:56:58;22.00;41.10
16313;DHT22;8265;52.622;13.296;2023-05-29T14:02:16;22.50;41.30
16313;DHT22;8265;52.622;13.296;2023-05-29T14:07:37;22.60;41.50
16313;DHT22;8265;52.622;13.296;2023-05-29T14:12:58;22.90;38.90
16313;DHT22;8265;52.622;13.296;2023-05-29T14:18:19;24.00;37.70
16313;DHT22;8265;52.622;13.296;2023-05-29T14:23:40;25.70;35.20
16313;DHT22;8265;52.622;13.296;2023-05-29T14:29:02;25.00;36.70
16313;DHT22;8265;52.622;13.296;2023-05-29T14:34:22;24.50;36.40
16313;DHT22;8265;52.622;13.296;2023-05-29T14:39:43;23.10;37.70
16313;DHT22;8265;52.622;13.296;2023-05-29T14:45:04;23.30;39.20
16313;DHT22;8265;52.622;13.296;2023-05-29T14:50:25;24.40;39.20
16313;DHT22;8265;52.622;13.296;2023-05-29T14:55:46;26.10;35.50
16313;DHT22;8265;52.622;13.296;2023-05-29T15:01:07;26.60;35.20
16313;DHT22;8265;52.622;13.296;2023-05-29T15:06:28;26.60;35.50
16313;DHT22;8265;52.622;13.296;2023-05-29T15:11:49;27.30;33.80
16313;DHT22;8265;52.622;13.296;2023-05-29T15:17:10;26.40;35.20
16313;DHT22;8265;52.622;13.296;2023-05-29T15:22:31;25.60;37.00
16313;DHT22;8265;52.622;13.296;2023-05-29T15:27:52;26.40;34.80
16313;DHT22;8265;52.622;13.296;2023-05-29T15:33:13;26.70;33.90
16313;DHT22;8265;52.622;13.296;2023-05-29T15:38:34;26.00;35.60
16313;DHT22;8265;52.622;13.296;2023-05-29T15:43:55;26.50;33.80
16313;DHT22;8265;52.622;13.296;2023-05-29T15:49:16;25.50;35.10
16313;DHT22;8265;52.622;13.296;2023-05-29T15:54:37;23.60;38.00
16313;DHT22;8265;52.622;13.296;2023-05-29T15:59:58;22.50;40.30
16313;DHT22;8265;52.622;13.296;2023-05-29T16:05:19;21.90;39.70
16313;DHT22;8265;52.622;13.296;2023-05-29T16:10:40;22.90;38.30
16313;DHT22;8265;52.622;13.296;2023-05-29T16:16:01;23.50;38.80
16313;DHT22;8265;52.622;13.296;2023-05-29T16:21:22;22.90;39.00
16313;DHT22;8265;52.622;13.296;2023-05-29T16:26:43;22.20;39.00
16313;DHT22;8265;52.622;13.296;2023-05-29T16:32:04;23.30;37.80
16313;DHT22;8265;52.622;13.296;2023-05-29T16:37:25;25.50;35.80
16313;DHT22;8265;52.622;13.296;2023-05-29T16:42:46;26.00;33.90
16313;DHT22;8265;52.622;13.296;2023-05-29T16:48:07;26.20;32.20
16313;DHT22;8265;52.622;13.296;2023-05-29T16:53:28;25.60;33.60
16313;DHT22;8265;52.622;13.296;2023-05-29T16:58:49;25.60;33.00
16313;DHT22;8265;52.622;13.296;2023-05-29T17:04:10;25.00;31.80
16313;DHT22;8265;52.622;13.296;2023-05-29T17:09:31;24.10;32.20
16313;DHT22;8265;52.622;13.296;2023-05-29T17:14:55;24.00;32.60
16313;DHT22;8265;52.622;13.296;2023-05-29T17:20:13;24.10;32.30
16313;DHT22;8265;52.622;13.296;2023-05-29T17:25:34;23.60;31.40
16313;DHT22;8265;52.622;13.296;2023-05-29T17:30:55;22.30;33.30
16313;DHT22;8265;52.622;13.296;2023-05-29T17:36:16;20.70;35.40
16313;DHT22;8265;52.622;13.296;2023-05-29T17:41:37;20.20;35.70
16313;DHT22;8265;52.622;13.296;2023-05-29T17:46:58;19.90;37.80
16313;DHT22;8265;52.622;13.296;2023-05-29T17:52:19;20.10;37.70
16313;DHT22;8265;52.622;13.296;2023-05-29T17:57:40;20.00;36.80
16313;DHT22;8265;52.622;13.296;2023-05-29T18:03:01;19.50;39.70
16313;DHT22;8265;52.622;13.296;2023-05-29T18:08:22;19.00;40.90
16313;DHT22;8265;52.622;13.296;2023-05-29T18:13:43;18.80;38.90
16313;DHT22;8265;52.622;13.296;2023-05-29T18:19:04;18.80;39.50
16313;DHT22;8265;52.622;13.296;2023-05-29T18:24:25;18.20;40.80
16313;DHT22;8265;52.622;13.296;2023-05-29T18:29:46;17.90;40.10
16313;DHT22;8265;52.622;13.296;2023-05-29T18:35:07;17.50;43.90
16313;DHT22;8265;52.622;13.296;2023-05-29T18:40:28;17.40;42.50
16313;DHT22;8265;52.622;13.296;2023-05-29T18:45:49;17.30;41.60
16313;DHT22;8265;52.622;13.296;2023-05-29T18:51:12;17.00;42.00
16313;DHT22;8265;52.622;13.296;2023-05-29T18:56:31;16.80;43.10
16313;DHT22;8265;52.622;13.296;2023-05-29T19:01:52;16.60;44.80
16313;DHT22;8265;52.622;13.296;2023-05-29T19:07:13;16.40;42.40
16313;DHT22;8265;52.622;13.296;2023-05-29T19:12:34;16.10;43.40
16313;DHT22;8265;52.622;13.296;2023-05-29T19:17:56;15.90;43.60
16313;DHT22;8265;52.622;13.296;2023-05-29T19:23:16;15.60;46.20
16313;DHT22;8265;52.622;13.296;2023-05-29T19:28:37;15.30;44.80
16313;DHT22;8265;52.622;13.296;2023-05-29T19:33:58;14.90;48.00
16313;DHT22;8265;52.622;13.296;2023-05-29T19:39:19;14.50;49.10
16313;DHT22;8265;52.622;13.296;2023-05-29T19:44:40;14.20;50.10
16313;DHT22;8265;52.622;13.296;2023-05-29T19:50:01;14.00;49.40
16313;DHT22;8265;52.622;13.296;2023-05-29T19:55:22;13.70;50.70
16313;DHT22;8265;52.622;13.296;2023-05-29T20:00:43;13.50;51.00
16313;DHT22;8265;52.622;13.296;2023-05-29T20:06:04;13.30;53.90
16313;DHT22;8265;52.622;13.296;2023-05-29T20:11:25;13.10;53.30
16313;DHT22;8265;52.622;13.296;2023-05-29T20:16:46;13.00;54.70
16313;DHT22;8265;52.622;13.296;2023-05-29T20:22:07;12.80;54.10
16313;DHT22;8265;52.622;13.296;2023-05-29T20:27:28;12.50;54.70
16313;DHT22;8265;52.622;13.296;2023-05-29T20:32:49;12.30;55.40
16313;DHT22;8265;52.622;13.296;2023-05-29T20:38:10;12.00;56.60
16313;DHT22;8265;52.622;13.296;2023-05-29T20:43:31;11.90;57.40
16313;DHT22;8265;52.622;13.296;2023-05-29T20:48:52;11.70;58.20
16313;DHT22;8265;52.622;13.296;2023-05-29T20:54:13;11.70;58.00
16313;DHT22;8265;52.622;13.296;2023-05-29T20:59:34;11.60;58.90
16313;DHT22;8265;52.622;13.296;2023-05-29T21:04:55;11.50;59.40
16313;DHT22;8265;52.622;13.296;2023-05-29T21:10:16;11.60;59.10
16313;DHT22;8265;52.622;13.296;2023-05-29T21:15:37;11.50;58.60
16313;DHT22;8265;52.622;13.296;2023-05-29T21:20:58;11.30;59.50
16313;DHT22;8265;52.622;13.296;2023-05-29T21:26:19;11.10;60.00
16313;DHT22;8265;52.622;13.296;2023-05-29T21:31:40;11.00;61.40
16313;DHT22;8265;52.622;13.296;2023-05-29T21:37:00;10.80;61.40
16313;DHT22;8265;52.622;13.296;2023-05-29T21:42:21;10.60;62.00
16313;DHT22;8265;52.622;13.296;2023-05-29T21:47:43;10.50;62.70
16313;DHT22;8265;52.622;13.296;2023-05-29T21:53:04;10.30;62.90
16313;DHT22;8265;52.622;13.296;2023-05-29T21:58:25;10.10;63.90
16313;DHT22;8265;52.622;13.296;2023-05-29T22:03:46;10.00;65.00
16313;DHT22;8265;52.622;13.296;2023-05-29T22:09:07;9.80;66.00
16313;DHT22;8265;52.622;13.296;2023-05-29T22:14:28;9.70;66.10
16313;DHT22;8265;52.622;13.296;2023-05-29T22:19:49;9.60;65.70
16313;DHT22;8265;52.622;13.296;2023-05-29T22:25:10;9.50;66.00
16313;DHT22;8265;52.622;13.296;2023-05-29T22:30:31;9.40;66.30
16313;DHT22;8265;52.622;13.296;2023-05-29T22:35:51;9.40;66.40
16313;DHT22;8265;52.622;13.296;2023-05-29T22:41:13;9.20;67.10
16313;DHT22;8265;52.622;13.296;2023-05-29T22:46:33;9.00;68.40
16313;DHT22;8265;52.622;13.296;2023-05-29T22:51:54;9.00;68.00
16313;DHT22;8265;52.622;13.296;2023-05-29T22:57:16;8.90;67.70
16313;DHT22;8265;52.622;13.296;2023-05-29T23:02:37;8.80;68.10
16313;DHT22;8265;52.622;13.296;2023-05-29T23:07:58;8.80;68.70
16313;DHT22;8265;52.622;13.296;2023-05-29T23:13:19;8.70;68.80
16313;DHT22;8265;52.622;13.296;2023-05-29T23:18:40;8.50;69.70
16313;DHT22;8265;52.622;13.296;2023-05-29T23:24:01;8.40;70.20
16313;DHT22;8265;52.622;13.296;2023-05-29T23:29:22;8.40;70.70
16313;DHT22;8265;52.622;13.296;2023-05-29T23:34:43;8.20;71.10
16313;DHT22;8265;52.622;13.296;2023-05-29T23:40:04;8.20;71.10
16313;DHT22;8265;52.622;13.296;2023-05-29T23:45:25;8.20;71.50
16313;DHT22;8265;52.622;13.296;2023-05-29T23:50:46;8.30;71.60
16313;DHT22;8265;52.622;13.296;2023-05-29T23:56:06;8.10;71.70
